Brangus — WDB4516 — position and weather

sailwx.info

Track history (hours):
 
Tides and Currents Weather Stations Pressure Air Temp Water Temp Dewpoint Dewpoint Depression Visibility Wind Speed Wind Dir Waves Ship Positions

Brangus

Owner: Great Lakes Dredge & Dock Company, Oak Brook, IL. More information available from US FCC via Universal Licensing System and Coast Guard Vessel Documentation Center.

Last reported at 2016-Jul-24 08:33 UTC. Time now 2016-Jul-24 08:50 UTC.
Position N 40°38' W 074°09'.

; draft 3 m.

MMSI: 366899270.

Date/timePositionNaut miles runAvg speedWind from/ knotsBaromVisibWave heightAir tempDewpointWater temp
2016-Jul-24 08:33N 40°38' W 074°09'0 0.0
2016-Jul-24 07:34N 40°38' W 074°09'0 0.0
2016-Jul-24 06:33N 40°38' W 074°09'0 0.0
2016-Jul-24 02:20N 40°38' W 074°09'0 0.0
2016-Jul-24 01:32N 40°38' W 074°09'0 0.5
2016-Jul-24 00:33N 40°38' W 074°09'4 4.3
2016-Jul-23 23:33N 40°37' W 074°03'38 4.7
2016-Jul-23 15:19N 39°58' W 074°03'4 5.4
2016-Jul-23 14:33N 39°54' W 074°03'5 5.1
2016-Jul-23 13:33N 39°49' W 074°04'4 3.5
2016-Jul-23 12:33N 39°46' W 074°06'1 1.0
2016-Jul-23 11:33N 39°45' W 074°07'0 0.0
2016-Jul-23 10:33N 39°45' W 074°07'0 0.2
2016-Jul-23 09:33N 39°45' W 074°07'1 0.6
2016-Jul-23 08:33N 39°46' W 074°07'0 0.0
2016-Jul-23 07:33N 39°46' W 074°07'0 0.0
2016-Jul-23 06:33N 39°46' W 074°07'0 0.0
2016-Jul-23 04:33N 39°46' W 074°07'0 0.0
2016-Jul-23 03:33N 39°46' W 074°07'0 0.0
2016-Jul-23 02:33N 39°46' W 074°07'0 0.0
2016-Jul-23 01:33N 39°46' W 074°07'1 0.8
2016-Jul-23 00:33N 39°45' W 074°07'0 0.0
2016-Jul-22 23:33N 39°45' W 074°07'0 0.0
2016-Jul-22 22:33N 39°45' W 074°07'0 0.0
2016-Jul-22 21:33N 39°45' W 074°07'0 0.0
2016-Jul-22 20:33N 39°45' W 074°07'0 0.0
2016-Jul-22 19:33N 39°45' W 074°07'0 0.0
2016-Jul-22 18:33N 39°45' W 074°07'0 0.0
2016-Jul-22 17:33N 39°45' W 074°07'1 0.8
2016-Jul-22 16:33N 39°46' W 074°07'0 0.1
2016-Jul-22 15:33N 39°46' W 074°07'2 1.9
2016-Jul-22 14:33N 39°45' W 074°05'6 5.5
2016-Jul-22 13:33N 39°40' W 074°08'5 5.3
2016-Jul-22 12:33N 39°36' W 074°12'4 4.4
2016-Jul-22 11:32N 39°32' W 074°15'4 3.6
2016-Jul-22 10:33N 39°35' W 074°12'8 7.7
2016-Jul-22 09:33N 39°42' W 074°07'4 4.4
2016-Jul-22 08:33N 39°46' W 074°07'0 0.0
2016-Jul-22 07:33N 39°46' W 074°07'0 0.0
2016-Jul-22 05:33N 39°46' W 074°07'0 0.0
2016-Jul-22 04:33N 39°46' W 074°07'0 0.0
2016-Jul-22 03:33N 39°46' W 074°07'0 0.0
2016-Jul-22 02:33N 39°46' W 074°07'0 0.0
2016-Jul-22 01:33N 39°46' W 074°07'0 0.0
2016-Jul-22 00:33N 39°46' W 074°07'1 0.8
2016-Jul-21 23:33N 39°45' W 074°07'1 1.4
2016-Jul-21 22:33N 39°45' W 074°05'5 5.1
2016-Jul-21 21:33N 39°40' W 074°05'0 0.0
2016-Jul-21 20:33N 39°40' W 074°05'0 0.0
2016-Jul-21 19:33N 39°40' W 074°05'0 0.0
2016-Jul-21 18:33N 39°40' W 074°05'0 0.1
2016-Jul-21 17:33N 39°40' W 074°05'0 0.0
2016-Jul-21 16:22N 39°40' W 074°05'0 0.0
2016-Jul-21 15:33N 39°40' W 074°05'0 0.0
2016-Jul-21 14:33N 39°40' W 074°05'0 0.0
2016-Jul-21 13:33N 39°40' W 074°05'0 0.0
2016-Jul-21 12:33N 39°40' W 074°05'0 0.0
2016-Jul-21 11:34N 39°40' W 074°05'3 2.9
2016-Jul-21 10:33N 39°43' W 074°05'3 2.8
2016-Jul-21 09:34N 39°46' W 074°07'1 0.5
2016-Jul-21 08:33N 39°45' W 074°07'0 0.0
2016-Jul-21 07:33N 39°45' W 074°07'0 0.0
2016-Jul-21 06:33N 39°45' W 074°07'0 0.0
2016-Jul-21 05:33N 39°45' W 074°07'0 0.0
2016-Jul-21 04:33N 39°45' W 074°07'0 0.0
2016-Jul-21 03:33N 39°45' W 074°07'0 0.0
2016-Jul-21 02:33N 39°45' W 074°07'0 0.0
2016-Jul-21 01:33N 39°45' W 074°07'0 0.0
2016-Jul-21 00:33N 39°45' W 074°07'0 0.0
2016-Jul-20 23:33N 39°45' W 074°07'0 0.0
2016-Jul-20 22:33N 39°45' W 074°07'0 0.0
2016-Jul-20 21:33N 39°45' W 074°07'0 0.0
2016-Jul-20 20:33N 39°45' W 074°07'0 0.0
2016-Jul-20 19:33N 39°45' W 074°07'1 1.3
2016-Jul-20 18:33N 39°45' W 074°05'3 3.4
2016-Jul-20 17:33N 39°42' W 074°07'2 2.4
2016-Jul-20 16:33N 39°40' W 074°08'0 0.2
2016-Jul-20 15:33N 39°40' W 074°08'0 0.1
2016-Jul-20 14:08N 39°40' W 074°08'0 0.6
2016-Jul-20 13:33N 39°41' W 074°08'4 4.4
2016-Jul-20 12:33N 39°44' W 074°06'1 1.2
2016-Jul-20 11:33N 39°45' W 074°07'0 0.0
2016-Jul-20 10:33N 39°45' W 074°07'1 0.8
2016-Jul-20 09:34N 39°46' W 074°07'0 0.0
2016-Jul-20 08:33N 39°46' W 074°07'0 0.0
2016-Jul-20 07:33N 39°46' W 074°07'0 0.0
2016-Jul-20 06:34N 39°46' W 074°07'0 0.0
2016-Jul-20 05:33N 39°46' W 074°07'0 0.0
2016-Jul-20 04:33N 39°46' W 074°07'0 0.0
2016-Jul-20 03:33N 39°46' W 074°07'1 0.7
2016-Jul-20 02:33N 39°45' W 074°07'0 0.1
2016-Jul-20 01:33N 39°45' W 074°07'0 0.0
2016-Jul-20 00:33N 39°45' W 074°07'0 0.0
2016-Jul-19 23:33N 39°45' W 074°07'0 0.0
2016-Jul-19 22:33N 39°45' W 074°07'0 0.0
2016-Jul-19 21:33N 39°45' W 074°07'0 0.0
2016-Jul-19 20:33N 39°45' W 074°07'0 0.0
2016-Jul-19 19:33N 39°45' W 074°07'1 0.8
2016-Jul-19 18:33N 39°46' W 074°07'0 0.0
2016-Jul-19 17:33N 39°46' W 074°07'0 0.0
2016-Jul-19 16:33N 39°46' W 074°07'0 0.0
2016-Jul-19 15:33N 39°46' W 074°07'0 0.0
2016-Jul-19 14:33N 39°46' W 074°07'0 0.3
2016-Jul-19 13:33N 39°46' W 074°07'0 0.5
2016-Jul-19 12:33N 39°45' W 074°07'0 0.0
2016-Jul-19 11:33N 39°45' W 074°07'0 0.0
2016-Jul-19 10:33N 39°45' W 074°07'0 0.0
2016-Jul-19 09:33N 39°45' W 074°07'0 0.0
2016-Jul-19 08:33N 39°45' W 074°07'0 0.0
2016-Jul-19 07:33N 39°45' W 074°07'0 0.0
2016-Jul-19 04:33N 39°45' W 074°07'0 0.0
2016-Jul-19 03:33N 39°45' W 074°07'0 0.0
2016-Jul-19 02:33N 39°45' W 074°07'0 0.0
2016-Jul-19 01:33N 39°45' W 074°07'0 0.0
2016-Jul-19 00:33N 39°45' W 074°07'0 0.0
2016-Jul-18 23:33N 39°45' W 074°07'0 0.0
2016-Jul-18 22:33N 39°45' W 074°07'0 0.0
2016-Jul-18 21:33N 39°45' W 074°07'0 0.0
2016-Jul-18 20:33N 39°45' W 074°07'1 0.8
2016-Jul-18 19:33N 39°46' W 074°07'0 0.0
2016-Jul-18 18:33N 39°46' W 074°07'0 0.0
2016-Jul-18 17:33N 39°46' W 074°07'0 0.0
2016-Jul-18 16:33N 39°46' W 074°07'1 0.8
2016-Jul-18 15:33N 39°45' W 074°07'0 0.0
2016-Jul-18 14:33N 39°45' W 074°07'0 0.0
2016-Jul-18 13:33N 39°45' W 074°07'0 0.0
2016-Jul-18 12:33N 39°45' W 074°07'1 1.0
2016-Jul-18 11:33N 39°46' W 074°07'1 1.0
2016-Jul-18 10:33N 39°45' W 074°07'0 0.0
2016-Jul-18 09:33N 39°45' W 074°07'1 0.8
2016-Jul-18 08:33N 39°46' W 074°07'0 0.0
2016-Jul-18 07:33N 39°46' W 074°07'0 0.0
2016-Jul-18 06:33N 39°46' W 074°07'0 0.0
2016-Jul-18 05:33N 39°46' W 074°07'0 0.0
2016-Jul-18 04:33N 39°46' W 074°07'0 0.0
2016-Jul-18 03:33N 39°46' W 074°07'0 0.0
2016-Jul-18 02:33N 39°46' W 074°07'1 0.3
2016-Jul-18 00:06N 39°45' W 074°07'0 0.0
2016-Jul-17 23:31N 39°45' W 074°07'0 0.0
2016-Jul-17 22:32N 39°45' W 074°07'0 0.0
2016-Jul-17 21:33N 39°45' W 074°07'0 0.0
2016-Jul-17 20:33N 39°45' W 074°07'0 0.0
2016-Jul-17 19:33N 39°45' W 074°07'1 1.1
2016-Jul-17 18:33N 39°46' W 074°07'2 2.2
2016-Jul-17 17:33N 39°44' W 074°06'2 1.5
2016-Jul-17 16:33N 39°43' W 074°07'5 4.7
2016-Jul-17 15:33N 39°39' W 074°09'5 4.6
2016-Jul-17 14:33N 39°34' W 074°12'3 2.8
2016-Jul-17 13:33N 39°32' W 074°13'0 0.1
2016-Jul-17 12:32N 39°32' W 074°13'0 0.2
2016-Jul-17 11:33N 39°32' W 074°14'5 5.2
2016-Jul-17 10:33N 39°37' W 074°10'6 5.6
2016-Jul-17 09:33N 39°42' W 074°07'4 4.2
2016-Jul-17 08:33N 39°46' W 074°06'1 0.9
2016-Jul-17 07:33N 39°45' W 074°07'1 0.8
2016-Jul-17 06:33N 39°46' W 074°07'0 0.0
2016-Jul-17 04:33N 39°46' W 074°07'0 0.0
2016-Jul-17 03:33N 39°46' W 074°07'0 0.0
2016-Jul-17 02:33N 39°46' W 074°07'0 0.0
2016-Jul-17 01:33N 39°46' W 074°07'1 0.8
2016-Jul-17 00:33N 39°45' W 074°07'0 0.0
2016-Jul-16 23:33N 39°45' W 074°07'1 1.2
2016-Jul-16 22:33N 39°46' W 074°07'1 1.1
2016-Jul-16 21:33N 39°45' W 074°07'0 0.0
2016-Jul-16 20:33N 39°45' W 074°07'1 1.0
2016-Jul-16 19:33N 39°46' W 074°07'0 0.2
2016-Jul-16 18:33N 39°46' W 074°07'1 0.8
2016-Jul-16 17:33N 39°45' W 074°07'0 0.0
2016-Jul-16 16:33N 39°45' W 074°07'1 0.8
2016-Jul-16 15:33N 39°46' W 074°07'0 0.1
2016-Jul-16 14:33N 39°46' W 074°07'1 0.8
2016-Jul-16 13:33N 39°45' W 074°07'0 0.0
2016-Jul-16 12:33N 39°45' W 074°07'1 0.7
2016-Jul-16 11:33N 39°46' W 074°07'1 0.7
2016-Jul-16 10:33N 39°45' W 074°07'1 0.8
2016-Jul-16 09:33N 39°46' W 074°07'0 0.0
2016-Jul-16 08:33N 39°46' W 074°07'0 0.0
2016-Jul-16 07:34N 39°46' W 074°07'0 0.0
2016-Jul-16 06:33N 39°46' W 074°07'0 0.0
2016-Jul-16 04:33N 39°46' W 074°07'0 0.0
2016-Jul-16 03:33N 39°46' W 074°07'0 0.0
2016-Jul-16 02:33N 39°46' W 074°07'0 0.4
2016-Jul-16 01:33N 39°46' W 074°07'0 0.4
2016-Jul-16 00:33N 39°45' W 074°07'0 0.0
2016-Jul-15 23:33N 39°45' W 074°07'0 0.0
2016-Jul-15 22:33N 39°45' W 074°07'0 0.2
2016-Jul-15 21:33N 39°45' W 074°07'1 0.8
2016-Jul-15 20:33N 39°46' W 074°07'0 0.2
2016-Jul-15 19:33N 39°46' W 074°07'1 0.6
2016-Jul-15 18:33N 39°45' W 074°07'0 0.2
2016-Jul-15 17:33N 39°45' W 074°07'2 1.8
2016-Jul-15 16:33N 39°43' W 074°06'6 6.1
2016-Jul-15 15:33N 39°38' W 074°10'6 6.2
2016-Jul-15 14:33N 39°33' W 074°14'1 0.8
2016-Jul-15 13:33N 39°32' W 074°15'0 0.4
2016-Jul-15 12:33N 39°32' W 074°14'0 0.1
2016-Jul-15 11:33N 39°32' W 074°14'4 4.0
2016-Jul-15 10:32N 39°35' W 074°12'5 5.4
2016-Jul-15 09:33N 39°40' W 074°09'5 5.1
2016-Jul-15 08:33N 39°44' W 074°05'2 2.0
2016-Jul-15 07:33N 39°46' W 074°07'0 0.1
2016-Jul-15 06:33N 39°46' W 074°07'0 0.0
2016-Jul-15 05:33N 39°46' W 074°07'0 0.0
2016-Jul-15 04:33N 39°46' W 074°07'0 0.0
2016-Jul-15 03:33N 39°46' W 074°07'0 0.0
2016-Jul-15 02:33N 39°46' W 074°07'0 0.0
2016-Jul-15 01:33N 39°46' W 074°07'1 0.8
2016-Jul-15 00:33N 39°45' W 074°07'0 0.0
2016-Jul-14 23:33N 39°45' W 074°07'0 0.0
2016-Jul-14 22:33N 39°45' W 074°07'0 0.0
2016-Jul-14 21:33N 39°45' W 074°07'1 0.8
2016-Jul-14 20:33N 39°46' W 074°07'0 0.0
2016-Jul-14 19:33N 39°46' W 074°07'0 0.0
2016-Jul-14 18:33N 39°46' W 074°07'0 0.4
2016-Jul-14 17:33N 39°46' W 074°07'0 0.3
2016-Jul-14 16:33N 39°46' W 074°07'0 0.0
2016-Jul-14 15:33N 39°46' W 074°07'0 0.0
2016-Jul-14 14:33N 39°46' W 074°07'0 0.0
2016-Jul-14 13:33N 39°46' W 074°07'0 0.0
2016-Jul-14 12:33N 39°46' W 074°07'1 0.8
2016-Jul-14 11:33N 39°45' W 074°07'1 0.8
2016-Jul-14 10:33N 39°46' W 074°07'0 0.0
2016-Jul-14 09:33N 39°46' W 074°07'0 0.0
2016-Jul-14 08:33N 39°46' W 074°07'  
Track history (hours):
 
Tides and Currents Weather Stations Pressure Air Temp Water Temp Dewpoint Dewpoint Depression Visibility Wind Speed Wind Dir Waves Ship Positions

Brangus

Owner: Great Lakes Dredge & Dock Company, Oak Brook, IL. More information available from US FCC via Universal Licensing System and Coast Guard Vessel Documentation Center.

Last reported at 2016-Jul-24 08:33 UTC. Time now 2016-Jul-24 08:50 UTC.
Position N 40°38' W 074°09'.

; draft 3 m.

MMSI: 366899270.

Date/timePositionNaut miles runAvg speedWind from/ knotsBaromVisibWave heightAir tempDewpointWater temp
2016-Jul-24 08:33N 40°38' W 074°09'0 0.0
2016-Jul-24 07:34N 40°38' W 074°09'0 0.0
2016-Jul-24 06:33N 40°38' W 074°09'0 0.0
2016-Jul-24 02:20N 40°38' W 074°09'0 0.0
2016-Jul-24 01:32N 40°38' W 074°09'0 0.5
2016-Jul-24 00:33N 40°38' W 074°09'4 4.3
2016-Jul-23 23:33N 40°37' W 074°03'38 4.7
2016-Jul-23 15:19N 39°58' W 074°03'4 5.4
2016-Jul-23 14:33N 39°54' W 074°03'5 5.1
2016-Jul-23 13:33N 39°49' W 074°04'4 3.5
2016-Jul-23 12:33N 39°46' W 074°06'1 1.0
2016-Jul-23 11:33N 39°45' W 074°07'0 0.0
2016-Jul-23 10:33N 39°45' W 074°07'0 0.2
2016-Jul-23 09:33N 39°45' W 074°07'1 0.6
2016-Jul-23 08:33N 39°46' W 074°07'0 0.0
2016-Jul-23 07:33N 39°46' W 074°07'0 0.0
2016-Jul-23 06:33N 39°46' W 074°07'0 0.0
2016-Jul-23 04:33N 39°46' W 074°07'0 0.0
2016-Jul-23 03:33N 39°46' W 074°07'0 0.0
2016-Jul-23 02:33N 39°46' W 074°07'0 0.0
2016-Jul-23 01:33N 39°46' W 074°07'1 0.8
2016-Jul-23 00:33N 39°45' W 074°07'0 0.0
2016-Jul-22 23:33N 39°45' W 074°07'0 0.0
2016-Jul-22 22:33N 39°45' W 074°07'0 0.0
2016-Jul-22 21:33N 39°45' W 074°07'0 0.0
2016-Jul-22 20:33N 39°45' W 074°07'0 0.0
2016-Jul-22 19:33N 39°45' W 074°07'0 0.0
2016-Jul-22 18:33N 39°45' W 074°07'0 0.0
2016-Jul-22 17:33N 39°45' W 074°07'1 0.8
2016-Jul-22 16:33N 39°46' W 074°07'0 0.1
2016-Jul-22 15:33N 39°46' W 074°07'2 1.9
2016-Jul-22 14:33N 39°45' W 074°05'6 5.5
2016-Jul-22 13:33N 39°40' W 074°08'5 5.3
2016-Jul-22 12:33N 39°36' W 074°12'4 4.4
2016-Jul-22 11:32N 39°32' W 074°15'4 3.6
2016-Jul-22 10:33N 39°35' W 074°12'8 7.7
2016-Jul-22 09:33N 39°42' W 074°07'4 4.4
2016-Jul-22 08:33N 39°46' W 074°07'0 0.0
2016-Jul-22 07:33N 39°46' W 074°07'0 0.0
2016-Jul-22 05:33N 39°46' W 074°07'0 0.0
2016-Jul-22 04:33N 39°46' W 074°07'0 0.0
2016-Jul-22 03:33N 39°46' W 074°07'0 0.0
2016-Jul-22 02:33N 39°46' W 074°07'0 0.0
2016-Jul-22 01:33N 39°46' W 074°07'0 0.0
2016-Jul-22 00:33N 39°46' W 074°07'1 0.8
2016-Jul-21 23:33N 39°45' W 074°07'1 1.4
2016-Jul-21 22:33N 39°45' W 074°05'5 5.1
2016-Jul-21 21:33N 39°40' W 074°05'0 0.0
2016-Jul-21 20:33N 39°40' W 074°05'0 0.0
2016-Jul-21 19:33N 39°40' W 074°05'0 0.0
2016-Jul-21 18:33N 39°40' W 074°05'0 0.1
2016-Jul-21 17:33N 39°40' W 074°05'0 0.0
2016-Jul-21 16:22N 39°40' W 074°05'0 0.0
2016-Jul-21 15:33N 39°40' W 074°05'0 0.0
2016-Jul-21 14:33N 39°40' W 074°05'0 0.0
2016-Jul-21 13:33N 39°40' W 074°05'0 0.0
2016-Jul-21 12:33N 39°40' W 074°05'0 0.0
2016-Jul-21 11:34N 39°40' W 074°05'3 2.9
2016-Jul-21 10:33N 39°43' W 074°05'3 2.8
2016-Jul-21 09:34N 39°46' W 074°07'1 0.5
2016-Jul-21 08:33N 39°45' W 074°07'0 0.0
2016-Jul-21 07:33N 39°45' W 074°07'0 0.0
2016-Jul-21 06:33N 39°45' W 074°07'0 0.0
2016-Jul-21 05:33N 39°45' W 074°07'0 0.0
2016-Jul-21 04:33N 39°45' W 074°07'0 0.0
2016-Jul-21 03:33N 39°45' W 074°07'0 0.0
2016-Jul-21 02:33N 39°45' W 074°07'0 0.0
2016-Jul-21 01:33N 39°45' W 074°07'0 0.0
2016-Jul-21 00:33N 39°45' W 074°07'0 0.0
2016-Jul-20 23:33N 39°45' W 074°07'0 0.0
2016-Jul-20 22:33N 39°45' W 074°07'0 0.0
2016-Jul-20 21:33N 39°45' W 074°07'0 0.0
2016-Jul-20 20:33N 39°45' W 074°07'0 0.0
2016-Jul-20 19:33N 39°45' W 074°07'1 1.3
2016-Jul-20 18:33N 39°45' W 074°05'3 3.4
2016-Jul-20 17:33N 39°42' W 074°07'2 2.4
2016-Jul-20 16:33N 39°40' W 074°08'0 0.2
2016-Jul-20 15:33N 39°40' W 074°08'0 0.1
2016-Jul-20 14:08N 39°40' W 074°08'0 0.6
2016-Jul-20 13:33N 39°41' W 074°08'4 4.4
2016-Jul-20 12:33N 39°44' W 074°06'1 1.2
2016-Jul-20 11:33N 39°45' W 074°07'0 0.0
2016-Jul-20 10:33N 39°45' W 074°07'1 0.8
2016-Jul-20 09:34N 39°46' W 074°07'0 0.0
2016-Jul-20 08:33N 39°46' W 074°07'0 0.0
2016-Jul-20 07:33N 39°46' W 074°07'0 0.0
2016-Jul-20 06:34N 39°46' W 074°07'0 0.0
2016-Jul-20 05:33N 39°46' W 074°07'0 0.0
2016-Jul-20 04:33N 39°46' W 074°07'0 0.0
2016-Jul-20 03:33N 39°46' W 074°07'1 0.7
2016-Jul-20 02:33N 39°45' W 074°07'0 0.1
2016-Jul-20 01:33N 39°45' W 074°07'0 0.0
2016-Jul-20 00:33N 39°45' W 074°07'0 0.0
2016-Jul-19 23:33N 39°45' W 074°07'0 0.0
2016-Jul-19 22:33N 39°45' W 074°07'0 0.0
2016-Jul-19 21:33N 39°45' W 074°07'0 0.0
2016-Jul-19 20:33N 39°45' W 074°07'0 0.0
2016-Jul-19 19:33N 39°45' W 074°07'1 0.8
2016-Jul-19 18:33N 39°46' W 074°07'0 0.0
2016-Jul-19 17:33N 39°46' W 074°07'0 0.0
2016-Jul-19 16:33N 39°46' W 074°07'0 0.0
2016-Jul-19 15:33N 39°46' W 074°07'0 0.0
2016-Jul-19 14:33N 39°46' W 074°07'0 0.3
2016-Jul-19 13:33N 39°46' W 074°07'0 0.5
2016-Jul-19 12:33N 39°45' W 074°07'0 0.0
2016-Jul-19 11:33N 39°45' W 074°07'0 0.0
2016-Jul-19 10:33N 39°45' W 074°07'0 0.0
2016-Jul-19 09:33N 39°45' W 074°07'0 0.0
2016-Jul-19 08:33N 39°45' W 074°07'0 0.0
2016-Jul-19 07:33N 39°45' W 074°07'0 0.0
2016-Jul-19 04:33N 39°45' W 074°07'0 0.0
2016-Jul-19 03:33N 39°45' W 074°07'0 0.0
2016-Jul-19 02:33N 39°45' W 074°07'0 0.0
2016-Jul-19 01:33N 39°45' W 074°07'0 0.0
2016-Jul-19 00:33N 39°45' W 074°07'0 0.0
2016-Jul-18 23:33N 39°45' W 074°07'0 0.0
2016-Jul-18 22:33N 39°45' W 074°07'0 0.0
2016-Jul-18 21:33N 39°45' W 074°07'0 0.0
2016-Jul-18 20:33N 39°45' W 074°07'1 0.8
2016-Jul-18 19:33N 39°46' W 074°07'0 0.0
2016-Jul-18 18:33N 39°46' W 074°07'0 0.0
2016-Jul-18 17:33N 39°46' W 074°07'0 0.0
2016-Jul-18 16:33N 39°46' W 074°07'1 0.8
2016-Jul-18 15:33N 39°45' W 074°07'0 0.0
2016-Jul-18 14:33N 39°45' W 074°07'0 0.0
2016-Jul-18 13:33N 39°45' W 074°07'0 0.0
2016-Jul-18 12:33N 39°45' W 074°07'1 1.0
2016-Jul-18 11:33N 39°46' W 074°07'1 1.0
2016-Jul-18 10:33N 39°45' W 074°07'0 0.0
2016-Jul-18 09:33N 39°45' W 074°07'1 0.8
2016-Jul-18 08:33N 39°46' W 074°07'0 0.0
2016-Jul-18 07:33N 39°46' W 074°07'0 0.0
2016-Jul-18 06:33N 39°46' W 074°07'0 0.0
2016-Jul-18 05:33N 39°46' W 074°07'0 0.0
2016-Jul-18 04:33N 39°46' W 074°07'0 0.0
2016-Jul-18 03:33N 39°46' W 074°07'0 0.0
2016-Jul-18 02:33N 39°46' W 074°07'1 0.3
2016-Jul-18 00:06N 39°45' W 074°07'0 0.0
2016-Jul-17 23:31N 39°45' W 074°07'0 0.0
2016-Jul-17 22:32N 39°45' W 074°07'0 0.0
2016-Jul-17 21:33N 39°45' W 074°07'0 0.0
2016-Jul-17 20:33N 39°45' W 074°07'0 0.0
2016-Jul-17 19:33N 39°45' W 074°07'1 1.1
2016-Jul-17 18:33N 39°46' W 074°07'2 2.2
2016-Jul-17 17:33N 39°44' W 074°06'2 1.5
2016-Jul-17 16:33N 39°43' W 074°07'5 4.7
2016-Jul-17 15:33N 39°39' W 074°09'5 4.6
2016-Jul-17 14:33N 39°34' W 074°12'3 2.8
2016-Jul-17 13:33N 39°32' W 074°13'0 0.1
2016-Jul-17 12:32N 39°32' W 074°13'0 0.2
2016-Jul-17 11:33N 39°32' W 074°14'5 5.2
2016-Jul-17 10:33N 39°37' W 074°10'6 5.6
2016-Jul-17 09:33N 39°42' W 074°07'4 4.2
2016-Jul-17 08:33N 39°46' W 074°06'1 0.9
2016-Jul-17 07:33N 39°45' W 074°07'1 0.8
2016-Jul-17 06:33N 39°46' W 074°07'0 0.0
2016-Jul-17 04:33N 39°46' W 074°07'0 0.0
2016-Jul-17 03:33N 39°46' W 074°07'0 0.0
2016-Jul-17 02:33N 39°46' W 074°07'0 0.0
2016-Jul-17 01:33N 39°46' W 074°07'1 0.8
2016-Jul-17 00:33N 39°45' W 074°07'0 0.0
2016-Jul-16 23:33N 39°45' W 074°07'1 1.2
2016-Jul-16 22:33N 39°46' W 074°07'1 1.1
2016-Jul-16 21:33N 39°45' W 074°07'0 0.0
2016-Jul-16 20:33N 39°45' W 074°07'1 1.0
2016-Jul-16 19:33N 39°46' W 074°07'0 0.2
2016-Jul-16 18:33N 39°46' W 074°07'1 0.8
2016-Jul-16 17:33N 39°45' W 074°07'0 0.0
2016-Jul-16 16:33N 39°45' W 074°07'1 0.8
2016-Jul-16 15:33N 39°46' W 074°07'0 0.1
2016-Jul-16 14:33N 39°46' W 074°07'1 0.8
2016-Jul-16 13:33N 39°45' W 074°07'0 0.0
2016-Jul-16 12:33N 39°45' W 074°07'1 0.7
2016-Jul-16 11:33N 39°46' W 074°07'1 0.7
2016-Jul-16 10:33N 39°45' W 074°07'1 0.8
2016-Jul-16 09:33N 39°46' W 074°07'0 0.0
2016-Jul-16 08:33N 39°46' W 074°07'0 0.0
2016-Jul-16 07:34N 39°46' W 074°07'0 0.0
2016-Jul-16 06:33N 39°46' W 074°07'0 0.0
2016-Jul-16 04:33N 39°46' W 074°07'0 0.0
2016-Jul-16 03:33N 39°46' W 074°07'0 0.0
2016-Jul-16 02:33N 39°46' W 074°07'0 0.4
2016-Jul-16 01:33N 39°46' W 074°07'0 0.4
2016-Jul-16 00:33N 39°45' W 074°07'0 0.0
2016-Jul-15 23:33N 39°45' W 074°07'0 0.0
2016-Jul-15 22:33N 39°45' W 074°07'0 0.2
2016-Jul-15 21:33N 39°45' W 074°07'1 0.8
2016-Jul-15 20:33N 39°46' W 074°07'0 0.2
2016-Jul-15 19:33N 39°46' W 074°07'1 0.6
2016-Jul-15 18:33N 39°45' W 074°07'0 0.2
2016-Jul-15 17:33N 39°45' W 074°07'2 1.8
2016-Jul-15 16:33N 39°43' W 074°06'6 6.1
2016-Jul-15 15:33N 39°38' W 074°10'6 6.2
2016-Jul-15 14:33N 39°33' W 074°14'1 0.8
2016-Jul-15 13:33N 39°32' W 074°15'0 0.4
2016-Jul-15 12:33N 39°32' W 074°14'0 0.1
2016-Jul-15 11:33N 39°32' W 074°14'4 4.0
2016-Jul-15 10:32N 39°35' W 074°12'5 5.4
2016-Jul-15 09:33N 39°40' W 074°09'5 5.1
2016-Jul-15 08:33N 39°44' W 074°05'2 2.0
2016-Jul-15 07:33N 39°46' W 074°07'0 0.1
2016-Jul-15 06:33N 39°46' W 074°07'0 0.0
2016-Jul-15 05:33N 39°46' W 074°07'0 0.0
2016-Jul-15 04:33N 39°46' W 074°07'0 0.0
2016-Jul-15 03:33N 39°46' W 074°07'0 0.0
2016-Jul-15 02:33N 39°46' W 074°07'0 0.0
2016-Jul-15 01:33N 39°46' W 074°07'1 0.8
2016-Jul-15 00:33N 39°45' W 074°07'0 0.0
2016-Jul-14 23:33N 39°45' W 074°07'0 0.0
2016-Jul-14 22:33N 39°45' W 074°07'0 0.0
2016-Jul-14 21:33N 39°45' W 074°07'1 0.8
2016-Jul-14 20:33N 39°46' W 074°07'0 0.0
2016-Jul-14 19:33N 39°46' W 074°07'0 0.0
2016-Jul-14 18:33N 39°46' W 074°07'0 0.4
2016-Jul-14 17:33N 39°46' W 074°07'0 0.3
2016-Jul-14 16:33N 39°46' W 074°07'0 0.0
2016-Jul-14 15:33N 39°46' W 074°07'0 0.0
2016-Jul-14 14:33N 39°46' W 074°07'0 0.0
2016-Jul-14 13:33N 39°46' W 074°07'0 0.0
2016-Jul-14 12:33N 39°46' W 074°07'1 0.8
2016-Jul-14 11:33N 39°45' W 074°07'1 0.8
2016-Jul-14 10:33N 39°46' W 074°07'0 0.0
2016-Jul-14 09:33N 39°46' W 074°07'0 0.0
2016-Jul-14 08:33N 39°46' W 074°07'  

Dump ship's entire track history